Time;durP1;ratioP1;P1;durP2;ratioP2;P2;SDS_P1;SDS_P2;PMS_P1;PMS_P2;Temp;Humidity;BMP_temperature;BMP_pressure;BME280_temperature;BME280_humidity;BME280_pressure;Samples;Min_cycle;Max_cycle;Signal;HPM_P1;HPM_P2
2021/01/26 00:02:01;;;;;;;15.57;10.32;;;1.90;99.90;;;;;;5094878;28;20073;-61
2021/01/26 00:04:26;;;;;;;17.70;10.45;;;1.90;99.90;;;;;;5095103;28;20401;-62
2021/01/26 00:06:52;;;;;;;16.27;9.52;;;2.00;99.90;;;;;;5094639;28;20031;-61
2021/01/26 00:09:18;;;;;;;17.52;11.18;;;1.90;99.90;;;;;;5094000;28;20032;-61
2021/01/26 00:11:43;;;;;;;17.20;10.30;;;2.00;99.90;;;;;;5095826;28;20024;-62
2021/01/26 00:14:09;;;;;;;15.85;11.02;;;2.00;99.90;;;;;;5093562;28;20151;-60
2021/01/26 00:16:35;;;;;;;16.58;10.90;;;2.00;99.90;;;;;;5095817;28;20025;-61
2021/01/26 00:19:00;;;;;;;19.25;11.77;;;1.80;99.90;;;;;;5095762;28;20054;-61
2021/01/26 00:21:26;;;;;;;16.00;10.43;;;1.90;99.90;;;;;;5095753;28;20093;-60
2021/01/26 00:23:52;;;;;;;15.70;10.90;;;1.80;99.90;;;;;;5093601;28;20032;-66
2021/01/26 00:26:18;;;;;;;15.65;9.90;;;1.80;99.90;;;;;;5072834;28;20036;-60
2021/01/26 00:28:45;;;;;;;17.75;10.23;;;1.80;99.90;;;;;;5072869;28;20488;-60
2021/01/26 00:31:10;;;;;;;18.30;10.70;;;1.80;99.90;;;;;;5054938;28;20513;-60
2021/01/26 00:33:36;;;;;;;13.10;9.63;;;1.90;99.90;;;;;;5056273;28;20079;-62
2021/01/26 00:36:02;;;;;;;18.75;11.27;;;1.80;99.90;;;;;;5055563;28;20059;-62
2021/01/26 00:38:28;;;;;;;15.55;9.52;;;1.90;99.90;;;;;;5056601;28;20074;-61
2021/01/26 00:40:53;;;;;;;16.23;9.73;;;1.80;99.90;;;;;;5074035;28;20032;-62
2021/01/26 00:43:19;;;;;;;13.25;9.27;;;1.70;99.90;;;;;;5074556;28;20122;-61
2021/01/26 00:45:45;;;;;;;16.05;9.57;;;1.80;99.90;;;;;;5073962;28;20083;-60
2021/01/26 00:48:11;;;;;;;16.90;10.35;;;1.70;99.90;;;;;;5055719;28;20024;-61
2021/01/26 00:50:37;;;;;;;19.38;10.27;;;1.60;99.90;;;;;;5057484;28;20466;-61
2021/01/26 00:53:03;;;;;;;14.82;7.82;;;1.70;99.90;;;;;;5056166;28;20035;-62
2021/01/26 00:55:29;;;;;;;15.85;9.50;;;1.80;99.90;;;;;;5074967;28;20028;-60
2021/01/26 00:57:55;;;;;;;16.13;8.98;;;1.70;99.90;;;;;;5074010;28;20040;-62
2021/01/26 01:00:24;;;;;;;15.45;9.23;;;1.50;99.90;;;;;;5074366;28;20466;-62
2021/01/26 01:02:50;;;;;;;14.40;8.63;;;1.60;99.90;;;;;;5056294;28;20040;-68
2021/01/26 01:05:16;;;;;;;13.77;9.18;;;1.70;99.90;;;;;;5074631;28;20066;-64
2021/01/26 01:07:42;;;;;;;20.95;8.82;;;1.70;99.90;;;;;;5073673;28;20048;-61
2021/01/26 01:10:10;;;;;;;15.32;9.20;;;1.70;99.90;;;;;;5072356;28;20511;-61
2021/01/26 01:12:36;;;;;;;17.80;10.00;;;1.70;99.90;;;;;;5073237;28;20032;-60
2021/01/26 01:15:02;;;;;;;13.27;9.02;;;1.70;99.90;;;;;;5073994;28;20127;-64
2021/01/26 01:17:28;;;;;;;15.20;9.20;;;1.70;99.90;;;;;;5072956;28;20025;-59
2021/01/26 01:19:53;;;;;;;17.05;10.60;;;1.80;99.90;;;;;;5073415;28;20428;-64
2021/01/26 01:22:19;;;;;;;15.40;9.45;;;1.80;99.90;;;;;;5073772;28;20024;-65
2021/01/26 01:24:45;;;;;;;14.00;9.70;;;1.80;99.90;;;;;;5074258;28;20032;-61
2021/01/26 01:27:10;;;;;;;18.55;11.07;;;1.80;99.90;;;;;;5075247;28;20050;-61
2021/01/26 01:29:36;;;;;;;13.93;8.60;;;1.80;99.90;;;;;;5093403;28;20081;-61
2021/01/26 01:32:05;;;;;;;17.00;9.65;;;2.00;99.90;;;;;;5070833;28;20033;-60
2021/01/26 01:34:31;;;;;;;13.73;9.38;;;1.90;99.90;;;;;;5054560;28;20035;-61
2021/01/26 01:36:57;;;;;;;19.92;10.32;;;1.80;99.90;;;;;;5071509;28;20036;-60
2021/01/26 01:39:22;;;;;;;16.42;10.00;;;1.80;99.90;;;;;;5055692;28;20044;-60
2021/01/26 01:41:48;;;;;;;14.38;9.32;;;1.90;99.90;;;;;;5071693;28;20067;-61
2021/01/26 01:44:14;;;;;;;15.52;8.95;;;1.80;99.90;;;;;;5054101;28;20145;-60
2021/01/26 01:46:47;;;;;;;15.52;9.35;;;1.80;99.90;;;;;;5054526;28;20036;-60
2021/01/26 01:49:17;;;;;;;16.23;9.93;;;1.90;99.90;;;;;;5053508;28;20098;-65
2021/01/26 01:51:44;;;;;;;17.23;10.57;;;1.90;99.90;;;;;;5071253;28;20032;-60
2021/01/26 01:54:17;;;;;;;18.60;10.80;;;1.90;99.90;;;;;;5053394;28;20040;-59
2021/01/26 01:57:12;;;;;;;16.70;10.20;;;2.00;99.90;;;;;;5054067;28;20024;-61
2021/01/26 01:59:45;;;;;;;16.02;9.50;;;2.00;99.90;;;;;;5050480;28;20107;-60
2021/01/26 02:02:12;;;;;;;21.23;10.88;;;2.10;99.90;;;;;;5053724;28;20045;-62
2021/01/26 02:04:38;;;;;;;16.50;9.95;;;2.00;99.90;;;;;;5074019;28;20071;-61
2021/01/26 02:07:05;;;;;;;16.77;11.07;;;1.80;99.90;;;;;;5074518;28;20058;-60
2021/01/26 02:09:34;;;;;;;16.27;10.23;;;1.70;99.90;;;;;;5075598;28;20032;-61
2021/01/26 02:12:00;;;;;;;15.52;10.57;;;1.80;99.90;;;;;;5074115;28;20024;-64
2021/01/26 02:14:30;;;;;;;19.98;11.30;;;1.90;99.90;;;;;;5071504;28;20133;-62
2021/01/26 02:16:55;;;;;;;15.60;9.85;;;1.70;99.90;;;;;;5073282;28;20025;-68
2021/01/26 02:19:49;;;;;;;18.13;11.13;;;1.60;99.90;;;;;;5071880;28;20474;-61
2021/01/26 02:22:42;;;;;;;18.13;11.18;;;1.70;99.90;;;;;;5072734;28;20025;-61
2021/01/26 02:25:40;;;;;;;18.60;11.43;;;1.70;99.90;;;;;;5071677;28;20436;-61
2021/01/26 02:28:34;;;;;;;21.48;9.77;;;1.60;99.90;;;;;;5083949;28;20024;-60
2021/01/26 02:31:37;;;;;;;18.67;11.55;;;1.70;99.90;;;;;;5091228;28;20032;-62
2021/01/26 02:34:44;;;;;;;18.50;11.20;;;1.70;99.90;;;;;;5093160;28;20036;-63
2021/01/26 02:37:34;;;;;;;17.10;10.48;;;1.80;99.90;;;;;;5091784;28;20111;-62
2021/01/26 02:40:14;;;;;;;17.65;10.38;;;1.80;99.90;;;;;;5091430;28;20062;-63
2021/01/26 02:42:49;;;;;;;15.43;9.93;;;1.80;99.90;;;;;;5092798;28;20055;-59
2021/01/26 02:45:56;;;;;;;17.33;10.30;;;1.90;99.90;;;;;;5093966;28;20105;-63
2021/01/26 02:48:37;;;;;;;20.73;10.32;;;1.80;99.90;;;;;;5077751;28;20025;-61
2021/01/26 02:51:13;;;;;;;18.57;11.83;;;1.80;99.90;;;;;;5076671;28;20108;-60
2021/01/26 02:53:57;;;;;;;19.05;11.52;;;1.80;99.90;;;;;;5076906;28;20775;-60
2021/01/26 02:56:53;;;;;;;17.98;10.55;;;1.90;99.90;;;;;;5077137;28;20029;-59
2021/01/26 02:59:53;;;;;;;15.60;10.73;;;1.90;99.90;;;;;;5077379;28;20082;-61
2021/01/26 03:02:33;;;;;;;18.55;10.60;;;1.90;99.90;;;;;;5094801;28;20478;-61
2021/01/26 03:05:07;;;;;;;15.90;10.05;;;1.90;99.90;;;;;;5096358;28;20086;-60
2021/01/26 03:07:39;;;;;;;14.40;9.63;;;1.80;99.90;;;;;;5096639;28;20024;-59
2021/01/26 03:10:13;;;;;;;19.13;10.43;;;1.80;99.90;;;;;;5095148;28;20028;-60
2021/01/26 03:12:43;;;;;;;18.08;9.73;;;1.90;99.90;;;;;;5097560;28;20047;-60
2021/01/26 03:15:26;;;;;;;16.60;10.50;;;1.80;99.90;;;;;;5096908;28;20059;-63
2021/01/26 03:17:56;;;;;;;14.95;9.73;;;1.80;99.90;;;;;;5098092;28;20024;-61
2021/01/26 03:20:38;;;;;;;16.83;9.73;;;1.80;99.90;;;;;;5099148;28;20059;-60
2021/01/26 03:23:34;;;;;;;17.73;11.35;;;1.60;99.90;;;;;;5098591;28;20031;-61
2021/01/26 03:26:02;;;;;;;14.30;8.55;;;1.70;99.90;;;;;;5090832;28;20035;-68
2021/01/26 03:28:29;;;;;;;17.35;9.98;;;1.80;99.90;;;;;;5097928;28;20024;-61
2021/01/26 03:31:00;;;;;;;14.48;8.82;;;1.80;99.90;;;;;;5081190;28;20036;-62
2021/01/26 03:33:36;;;;;;;14.68;8.82;;;1.80;99.90;;;;;;5073952;28;20036;-60
2021/01/26 03:36:03;;;;;;;18.83;10.13;;;1.80;99.90;;;;;;5070934;28;20025;-62
2021/01/26 03:38:31;;;;;;;15.80;9.38;;;1.80;99.90;;;;;;5088506;28;20024;-61
2021/01/26 03:40:59;;;;;;;14.00;8.95;;;1.80;99.90;;;;;;5097476;28;20055;-60
2021/01/26 03:43:25;;;;;;;16.77;9.02;;;1.90;99.90;;;;;;5097971;28;20036;-63
2021/01/26 03:45:57;;;;;;;15.43;9.20;;;2.00;99.90;;;;;;5097545;28;20111;-60
2021/01/26 03:48:38;;;;;;;14.00;7.88;;;2.00;99.90;;;;;;5095639;28;20035;-67
2021/01/26 03:51:34;;;;;;;14.57;9.15;;;2.00;99.90;;;;;;5096176;28;20031;-60
2021/01/26 03:54:29;;;;;;;15.18;8.55;;;2.10;99.90;;;;;;5057946;28;20117;-69
2021/01/26 03:57:26;;;;;;;14.70;8.80;;;2.10;99.90;;;;;;5045803;28;20039;-59
2021/01/26 04:00:08;;;;;;;14.48;9.07;;;2.10;99.90;;;;;;5074370;28;20052;-62
2021/01/26 04:02:53;;;;;;;16.23;9.20;;;2.10;99.90;;;;;;5075563;28;20029;-60
2021/01/26 04:05:22;;;;;;;17.10;9.23;;;2.20;99.90;;;;;;5075080;28;20053;-64
2021/01/26 04:08:13;;;;;;;14.85;8.48;;;2.30;99.90;;;;;;5076843;28;20041;-63
2021/01/26 04:10:50;;;;;;;14.57;8.80;;;2.30;99.90;;;;;;5076628;28;20028;-62
2021/01/26 04:13:24;;;;;;;13.30;7.68;;;2.40;99.90;;;;;;5069147;28;20037;-61
2021/01/26 04:15:54;;;;;;;13.77;7.55;;;2.40;99.90;;;;;;5075533;28;20145;-62
2021/01/26 04:18:33;;;;;;;13.75;8.13;;;2.50;99.90;;;;;;5075170;28;20051;-60
2021/01/26 04:21:00;;;;;;;15.48;8.60;;;2.30;99.90;;;;;;5076228;28;20032;-60
2021/01/26 04:23:27;;;;;;;13.27;7.35;;;2.40;99.90;;;;;;5076063;28;20039;-62
2021/01/26 04:26:01;;;;;;;13.55;7.10;;;2.40;99.90;;;;;;5080672;28;20031;-62
2021/01/26 04:28:45;;;;;;;17.77;8.50;;;2.50;99.90;;;;;;5096187;28;20024;-60
2021/01/26 04:31:14;;;;;;;15.20;8.30;;;2.40;99.90;;;;;;5095438;28;20039;-60
2021/01/26 04:33:40;;;;;;;13.85;7.95;;;2.40;99.90;;;;;;5095623;28;20046;-61
2021/01/26 04:36:07;;;;;;;15.48;7.95;;;2.40;99.90;;;;;;5094204;28;20031;-60
2021/01/26 04:38:33;;;;;;;18.80;8.80;;;2.30;99.90;;;;;;5094734;28;20024;-63
2021/01/26 04:41:11;;;;;;;13.15;7.70;;;2.40;99.90;;;;;;5097865;28;20035;-61
2021/01/26 04:44:03;;;;;;;13.35;7.72;;;2.40;99.90;;;;;;5097136;28;20047;-65
2021/01/26 04:46:32;;;;;;;18.23;7.28;;;2.50;99.90;;;;;;5089002;28;20477;-60
2021/01/26 04:49:16;;;;;;;11.98;8.05;;;2.50;99.90;;;;;;5074651;28;20047;-61
2021/01/26 04:51:51;;;;;;;15.48;8.65;;;2.50;99.90;;;;;;5075407;28;20025;-61
2021/01/26 04:54:35;;;;;;;11.77;7.35;;;2.50;99.90;;;;;;5081001;28;20462;-61
2021/01/26 04:57:30;;;;;;;13.02;8.43;;;2.40;99.90;;;;;;5096234;28;20077;-64
2021/01/26 05:00:11;;;;;;;15.85;8.55;;;2.40;99.90;;;;;;5097172;28;20067;-61
2021/01/26 05:02:52;;;;;;;18.00;8.07;;;2.50;99.90;;;;;;5096354;28;20038;-60
2021/01/26 05:05:20;;;;;;;13.57;7.38;;;2.50;99.90;;;;;;5095030;28;20066;-67
2021/01/26 05:07:53;;;;;;;14.63;8.45;;;2.50;99.90;;;;;;5095667;28;20030;-62
2021/01/26 05:10:36;;;;;;;14.65;7.47;;;2.50;99.90;;;;;;5093731;28;20020;-63
2021/01/26 05:13:11;;;;;;;16.50;7.93;;;2.50;99.90;;;;;;5095953;28;20039;-62
2021/01/26 05:15:41;;;;;;;14.63;7.70;;;2.60;99.90;;;;;;5096996;28;20048;-61
2021/01/26 05:18:19;;;;;;;13.85;7.53;;;2.60;99.90;;;;;;5094945;28;20066;-69
2021/01/26 05:20:52;;;;;;;18.55;8.38;;;2.50;99.90;;;;;;5095625;28;20032;-61
2021/01/26 05:23:29;;;;;;;16.58;9.20;;;2.50;99.90;;;;;;5092720;28;20023;-61
2021/01/26 05:25:55;;;;;;;16.70;7.50;;;2.60;99.90;;;;;;5093906;28;20038;-63
2021/01/26 05:28:22;;;;;;;14.23;7.55;;;2.70;99.90;;;;;;5093949;28;20480;-61
2021/01/26 05:30:57;;;;;;;13.13;7.25;;;2.70;99.90;;;;;;5080384;28;20029;-61
2021/01/26 05:33:23;;;;;;;19.83;8.07;;;2.50;99.90;;;;;;5073838;28;20063;-61
2021/01/26 05:35:56;;;;;;;13.05;6.80;;;2.60;99.90;;;;;;5075869;28;20033;-60
2021/01/26 05:38:22;;;;;;;11.70;6.70;;;2.60;99.90;;;;;;5074275;28;20017;-62
2021/01/26 05:40:58;;;;;;;13.88;8.35;;;2.70;99.90;;;;;;5074169;28;20024;-60
2021/01/26 05:43:28;;;;;;;14.27;7.32;;;2.70;99.90;;;;;;5074867;28;20055;-64
2021/01/26 05:45:57;;;;;;;14.98;8.00;;;2.70;99.90;;;;;;5075326;28;20428;-66
2021/01/26 05:48:24;;;;;;;12.43;6.53;;;2.80;99.90;;;;;;5081304;28;20081;-61
2021/01/26 05:50:52;;;;;;;10.23;6.40;;;2.80;99.90;;;;;;5094406;28;20024;-61
2021/01/26 05:53:27;;;;;;;16.40;7.65;;;2.80;99.90;;;;;;5093337;28;20369;-62
2021/01/26 05:56:10;;;;;;;13.15;7.60;;;2.80;99.90;;;;;;5096383;28;20031;-62
2021/01/26 05:58:38;;;;;;;15.00;7.72;;;2.80;99.90;;;;;;5095161;28;20028;-63
2021/01/26 06:01:07;;;;;;;11.48;6.03;;;2.90;99.90;;;;;;5095663;28;20033;-60
2021/01/26 06:03:33;;;;;;;12.20;6.00;;;2.80;99.90;;;;;;5094190;28;20042;-64
2021/01/26 06:06:08;;;;;;;9.30;6.15;;;2.80;99.90;;;;;;5093555;28;20081;-63
2021/01/26 06:08:55;;;;;;;9.63;6.85;;;2.90;99.90;;;;;;5093487;28;20024;-60
2021/01/26 06:11:30;;;;;;;10.55;5.78;;;2.90;99.90;;;;;;5091497;28;20036;-64
2021/01/26 06:14:14;;;;;;;11.98;6.35;;;3.00;99.90;;;;;;5074087;28;20109;-60
2021/01/26 06:16:40;;;;;;;13.05;6.10;;;3.00;99.90;;;;;;5089805;28;20039;-60
2021/01/26 06:19:07;;;;;;;13.77;6.70;;;2.90;99.90;;;;;;5074461;28;20029;-66
2021/01/26 06:21:50;;;;;;;8.45;4.78;;;3.10;99.90;;;;;;5073355;28;20032;-62
2021/01/26 06:24:22;;;;;;;11.50;5.97;;;3.00;99.90;;;;;;5072766;28;20032;-64
2021/01/26 06:27:08;;;;;;;9.27;5.13;;;3.00;99.90;;;;;;5082361;28;20097;-65
2021/01/26 06:29:53;;;;;;;11.38;5.28;;;3.10;99.90;;;;;;5092989;28;20035;-61
2021/01/26 06:32:43;;;;;;;12.60;6.07;;;3.10;99.90;;;;;;5090879;28;20025;-61
2021/01/26 06:35:41;;;;;;;10.23;5.25;;;3.10;99.90;;;;;;5092013;28;20118;-71
2021/01/26 06:38:28;;;;;;;8.40;4.90;;;3.10;99.90;;;;;;5090864;28;20126;-61
2021/01/26 06:41:07;;;;;;;10.73;5.55;;;3.10;99.90;;;;;;5093314;28;20084;-63
2021/01/26 06:43:53;;;;;;;15.40;6.43;;;3.20;99.90;;;;;;5094085;28;20043;-62
2021/01/26 06:46:57;;;;;;;9.80;5.97;;;3.20;99.90;;;;;;5092072;28;20024;-61
2021/01/26 06:49:47;;;;;;;18.92;6.05;;;3.20;99.90;;;;;;5092320;28;20020;-62
2021/01/26 06:52:18;;;;;;;11.10;5.45;;;3.30;99.90;;;;;;5070460;28;20170;-63
2021/01/26 06:54:50;;;;;;;9.07;5.00;;;3.20;99.90;;;;;;5072599;28;20028;-63
2021/01/26 06:57:28;;;;;;;9.57;5.07;;;3.20;99.90;;;;;;5070332;28;20106;-62
2021/01/26 07:00:12;;;;;;;9.10;4.60;;;3.30;99.90;;;;;;5073215;28;20032;-61
2021/01/26 07:02:56;;;;;;;1077.88;158.90;;;3.20;99.90;;;;;;5072151;28;20020;-61
2021/01/26 07:06:04;;;;;;;45.97;19.08;;;5.90;99.90;;;;;;5071690;28;20028;-62
2021/01/26 07:08:32;;;;;;;28.63;15.70;;;6.80;99.90;;;;;;5060559;28;20068;-63
2021/01/26 07:11:23;;;;;;;23.50;12.40;;;4.90;99.90;;;;;;5071399;28;20029;-62
2021/01/26 07:14:04;;;;;;;9.82;6.70;;;4.00;99.90;;;;;;5082085;28;20084;-62
2021/01/26 07:16:53;;;;;;;7.32;4.80;;;3.70;99.90;;;;;;5089085;28;20472;-63
2021/01/26 07:19:41;;;;;;;8.32;4.22;;;3.60;99.90;;;;;;5090525;28;20032;-66
2021/01/26 07:22:23;;;;;;;9.60;4.68;;;3.50;99.90;;;;;;5054088;28;20056;-62
2021/01/26 07:25:32;;;;;;;10.40;4.50;;;3.60;99.90;;;;;;5071180;28;20032;-62
2021/01/26 07:28:22;;;;;;;11.48;4.32;;;3.50;99.90;;;;;;5062926;28;20142;-65
2021/01/26 07:31:03;;;;;;;12.50;4.50;;;3.40;99.90;;;;;;5072232;28;20047;-60
2021/01/26 07:33:37;;;;;;;9.33;3.97;;;3.50;99.90;;;;;;5072905;28;20075;-61
2021/01/26 07:36:15;;;;;;;7.60;4.00;;;3.50;99.90;;;;;;5073843;28;20032;-60
2021/01/26 07:39:02;;;;;;;9.73;4.20;;;3.60;99.90;;;;;;5085351;28;20039;-62
2021/01/26 07:41:40;;;;;;;10.30;4.97;;;3.60;99.90;;;;;;5093154;28;20024;-61
2021/01/26 07:44:25;;;;;;;7.35;4.00;;;3.60;99.90;;;;;;5093898;28;20024;-62
2021/01/26 07:47:10;;;;;;;8.85;3.80;;;3.60;99.90;;;;;;5094700;28;20028;-65
2021/01/26 07:50:04;;;;;;;9.95;3.78;;;3.60;99.90;;;;;;5094417;28;20031;-62
2021/01/26 07:52:33;;;;;;;7.22;3.63;;;3.70;99.90;;;;;;5090448;28;20532;-62
2021/01/26 07:55:40;;;;;;;6.50;3.88;;;3.70;99.90;;;;;;5072684;28;20029;-62
2021/01/26 07:58:11;;;;;;;8.68;4.75;;;3.70;99.90;;;;;;5044028;28;20037;-62
2021/01/26 08:00:51;;;;;;;8.60;4.22;;;3.70;99.90;;;;;;5073021;28;20170;-63
2021/01/26 08:03:23;;;;;;;11.20;4.05;;;3.70;99.90;;;;;;5073181;28;20029;-63
2021/01/26 08:05:51;;;;;;;6.25;4.35;;;3.80;99.90;;;;;;5073858;28;20480;-62
2021/01/26 08:08:30;;;;;;;5.57;3.30;;;3.70;99.90;;;;;;5080981;28;20027;-72
2021/01/26 08:11:07;;;;;;;5.00;3.85;;;3.80;99.90;;;;;;5093562;28;20020;-63
2021/01/26 08:13:35;;;;;;;6.38;3.78;;;3.80;99.90;;;;;;5092265;28;20070;-62
2021/01/26 08:16:32;;;;;;;5.85;3.40;;;3.80;99.90;;;;;;5093334;28;20054;-62
2021/01/26 08:19:01;;;;;;;9.82;4.55;;;3.80;99.90;;;;;;5093793;28;20135;-62
2021/01/26 08:21:36;;;;;;;7.60;3.88;;;3.80;99.90;;;;;;5092687;28;20032;-64
2021/01/26 08:24:22;;;;;;;9.73;3.38;;;3.70;99.90;;;;;;5093894;28;20028;-62
2021/01/26 08:26:54;;;;;;;10.65;3.50;;;3.70;99.90;;;;;;5093874;28;20442;-60
2021/01/26 08:29:35;;;;;;;;;;;3.80;99.90;;;;;;5093575;28;20027;-62
2021/01/26 08:32:27;;;;;;;9.45;3.92;;;3.80;99.90;;;;;;5093635;28;19943;-63
2021/01/26 08:35:01;;;;;;;10.95;4.45;;;3.80;99.90;;;;;;5094546;28;20499;-62
2021/01/26 08:37:42;;;;;;;8.43;4.07;;;3.90;99.90;;;;;;5094210;28;20457;-66
2021/01/26 08:40:15;;;;;;;9.57;3.80;;;3.90;99.90;;;;;;5073704;28;20020;-62
2021/01/26 08:42:41;;;;;;;4.82;3.60;;;3.90;99.90;;;;;;5072766;28;20060;-63
2021/01/26 08:45:27;;;;;;;9.88;3.50;;;3.80;99.90;;;;;;5073328;28;20067;-63
2021/01/26 08:47:57;;;;;;;8.88;3.58;;;3.80;99.90;;;;;;5059139;28;20033;-62
2021/01/26 08:51:01;;;;;;;6.97;2.55;;;3.80;99.90;;;;;;5073769;28;20029;-63
2021/01/26 08:53:27;;;;;;;8.20;3.65;;;3.80;99.90;;;;;;5027500;28;20040;-62
2021/01/26 08:56:19;;;;;;;4.22;2.58;;;3.90;99.90;;;;;;5074201;28;20484;-65
2021/01/26 08:58:44;;;;;;;6.95;3.03;;;3.90;99.90;;;;;;5072986;28;20021;-64
2021/01/26 09:01:38;;;;;;;6.85;3.13;;;3.90;99.90;;;;;;5072661;28;20029;-62
2021/01/26 09:04:13;;;;;;;5.05;2.88;;;3.90;99.90;;;;;;5072818;28;20450;-63
2021/01/26 09:06:39;;;;;;;5.20;2.83;;;3.80;99.90;;;;;;5073400;28;20028;-63
2021/01/26 09:09:30;;;;;;;10.30;3.42;;;3.90;99.90;;;;;;5081579;28;20051;-62
2021/01/26 09:12:05;;;;;;;4.20;2.38;;;3.90;99.90;;;;;;5083220;28;20122;-62
2021/01/26 09:14:33;;;;;;;7.25;3.03;;;4.00;99.90;;;;;;5089364;28;20067;-62
2021/01/26 09:17:12;;;;;;;3.70;2.40;;;4.00;99.90;;;;;;5094225;28;20024;-62
2021/01/26 09:19:43;;;;;;;9.18;3.50;;;4.00;99.90;;;;;;5085400;28;20016;-62
2021/01/26 09:22:17;;;;;;;7.72;2.47;;;4.10;99.90;;;;;;5093406;28;20099;-60
2021/01/26 09:24:43;;;;;;;7.85;3.30;;;4.10;99.90;;;;;;5091202;28;20482;-63
2021/01/26 09:27:21;;;;;;;8.05;3.03;;;4.30;99.90;;;;;;5091558;28;20028;-61
2021/01/26 09:30:00;;;;;;;5.18;2.67;;;4.30;99.90;;;;;;5093366;28;20484;-62
2021/01/26 09:32:26;;;;;;;5.43;3.70;;;4.30;99.90;;;;;;5092783;28;20474;-67
2021/01/26 09:34:52;;;;;;;8.27;3.17;;;4.40;99.90;;;;;;5091476;28;20035;-62
2021/01/26 09:37:24;;;;;;;7.00;3.28;;;4.40;99.90;;;;;;5092010;28;20477;-64
2021/01/26 09:39:50;;;;;;;6.88;3.63;;;4.40;99.90;;;;;;5091494;28;20028;-62
2021/01/26 09:42:23;;;;;;;8.45;4.05;;;4.50;99.90;;;;;;5093694;28;20050;-63
2021/01/26 09:45:00;;;;;;;5.97;2.40;;;4.40;99.90;;;;;;5092660;28;20075;-63
2021/01/26 09:47:28;;;;;;;11.88;3.53;;;4.50;99.90;;;;;;5093760;28;20048;-62
2021/01/26 09:50:12;;;;;;;6.18;2.80;;;4.40;99.90;;;;;;5092420;28;20111;-62
2021/01/26 09:52:38;;;;;;;10.45;2.97;;;4.40;99.90;;;;;;5093077;28;20024;-67
2021/01/26 09:55:12;;;;;;;5.75;3.30;;;4.50;99.90;;;;;;5092632;28;20055;-62
2021/01/26 09:57:38;;;;;;;7.85;2.90;;;4.50;99.90;;;;;;5085910;28;20027;-62
2021/01/26 10:00:10;;;;;;;5.07;2.78;;;4.50;99.90;;;;;;5092663;28;20024;-63
2021/01/26 10:02:36;;;;;;;9.75;2.55;;;4.50;99.90;;;;;;5092394;28;20527;-63
2021/01/26 10:05:06;;;;;;;9.38;2.92;;;4.50;99.90;;;;;;5093919;28;20032;-62
2021/01/26 10:07:32;;;;;;;8.23;2.38;;;4.50;99.90;;;;;;5093636;28;20493;-61
2021/01/26 10:10:28;;;;;;;5.63;2.28;;;4.50;99.90;;;;;;5091825;28;20485;-61
2021/01/26 10:12:54;;;;;;;7.80;3.17;;;4.50;99.90;;;;;;5080716;28;20051;-62
2021/01/26 10:15:23;;;;;;;11.50;2.63;;;4.50;99.90;;;;;;5091626;28;20082;-69
2021/01/26 10:17:49;;;;;;;16.77;4.05;;;4.60;99.90;;;;;;5092642;28;20035;-61
2021/01/26 10:20:25;;;;;;;3.33;2.67;;;6.50;99.90;;;;;;5091092;28;20385;-61
2021/01/26 10:23:01;;;;;;;7.43;2.92;;;6.00;99.90;;;;;;5091138;28;20054;-65
2021/01/26 10:25:27;;;;;;;8.27;2.60;;;7.30;99.90;;;;;;5090252;28;20024;-66
2021/01/26 10:28:08;;;;;;;3.97;2.15;;;7.60;99.90;;;;;;5092034;28;20138;-62
2021/01/26 10:30:41;;;;;;;6.65;2.30;;;8.00;99.90;;;;;;5080616;28;20027;-60
2021/01/26 10:33:06;;;;;;;8.02;2.10;;;8.10;99.90;;;;;;5072320;28;20044;-62
2021/01/26 10:35:36;;;;;;;3.45;1.80;;;8.20;99.90;;;;;;5090327;28;20073;-62
2021/01/26 10:38:31;;;;;;;9.70;2.60;;;7.10;99.90;;;;;;5083898;28;20381;-62
2021/01/26 10:41:07;;;;;;;6.57;2.72;;;6.10;99.90;;;;;;5076516;28;20032;-62
2021/01/26 10:43:33;;;;;;;6.30;2.10;;;5.50;99.90;;;;;;5088988;28;20051;-62
2021/01/26 10:45:59;;;;;;;6.93;2.38;;;5.30;99.90;;;;;;5090083;28;20452;-67
2021/01/26 10:48:34;;;;;;;6.97;2.35;;;5.00;99.90;;;;;;5078126;28;20047;-68
2021/01/26 10:51:35;;;;;;;6.50;2.85;;;5.00;99.90;;;;;;5091686;28;20024;-62
2021/01/26 10:54:04;;;;;;;5.70;2.00;;;4.90;99.90;;;;;;5092319;28;20430;-63
2021/01/26 10:56:30;;;;;;;4.75;2.22;;;4.90;99.90;;;;;;5089900;28;20115;-65
2021/01/26 10:58:56;;;;;;;6.78;2.85;;;4.80;99.90;;;;;;5091031;28;20434;-66
2021/01/26 11:01:22;;;;;;;6.65;1.95;;;4.80;99.90;;;;;;5090443;28;20432;-63
2021/01/26 11:03:50;;;;;;;4.88;2.00;;;4.80;99.90;;;;;;5090273;28;20136;-63
2021/01/26 11:06:17;;;;;;;10.57;2.75;;;4.90;99.90;;;;;;5093798;28;20028;-64
2021/01/26 11:08:43;;;;;;;5.38;2.45;;;4.80;99.90;;;;;;5091348;28;20768;-67
2021/01/26 11:11:13;;;;;;;3.90;2.00;;;4.70;99.90;;;;;;5096115;28;20501;-62
2021/01/26 11:13:39;;;;;;;4.85;2.17;;;4.80;99.90;;;;;;5095651;28;20040;-61
2021/01/26 11:16:05;;;;;;;6.65;2.20;;;4.80;99.90;;;;;;5095822;28;20504;-62
2021/01/26 11:18:31;;;;;;;4.38;1.83;;;4.70;99.90;;;;;;5094379;28;20473;-60
2021/01/26 11:20:59;;;;;;;4.38;1.98;;;4.60;99.90;;;;;;5096952;28;20496;-62
2021/01/26 11:23:25;;;;;;;4.18;2.08;;;4.60;99.90;;;;;;5095034;28;20064;-68
2021/01/26 11:25:51;;;;;;;5.45;2.13;;;4.50;99.90;;;;;;5094488;28;20531;-62
2021/01/26 11:28:17;;;;;;;4.63;1.90;;;4.50;99.90;;;;;;5088091;28;20090;-63
2021/01/26 11:30:43;;;;;;;5.38;2.20;;;4.50;99.90;;;;;;5075972;28;20033;-64
2021/01/26 11:33:09;;;;;;;6.88;3.05;;;4.50;99.90;;;;;;5076236;28;20035;-61
2021/01/26 11:35:35;;;;;;;4.72;2.17;;;4.50;99.90;;;;;;5080307;28;20176;-62
2021/01/26 11:38:01;;;;;;;8.32;2.80;;;4.40;99.90;;;;;;5096438;28;20500;-62
2021/01/26 11:40:27;;;;;;;8.05;2.65;;;4.50;99.90;;;;;;5095129;28;20110;-67
2021/01/26 11:42:53;;;;;;;5.68;2.60;;;4.50;99.90;;;;;;5095456;28;20040;-65
2021/01/26 11:45:23;;;;;;;6.20;2.92;;;4.70;99.90;;;;;;5095496;28;20030;-62
2021/01/26 11:47:50;;;;;;;6.78;2.30;;;4.80;99.90;;;;;;5085311;28;20028;-63
2021/01/26 11:50:16;;;;;;;4.85;2.30;;;4.80;99.90;;;;;;5074713;28;20031;-62
2021/01/26 11:52:42;;;;;;;5.47;2.20;;;4.80;99.90;;;;;;5090523;28;20039;-66
2021/01/26 11:55:12;;;;;;;5.20;2.83;;;4.80;99.90;;;;;;5093764;28;20024;-61
2021/01/26 11:57:38;;;;;;;6.32;2.45;;;4.80;99.90;;;;;;5090911;28;20028;-63
2021/01/26 12:00:09;;;;;;;6.35;2.65;;;4.90;99.90;;;;;;5088210;28;20032;-67
2021/01/26 12:02:34;;;;;;;6.65;2.92;;;4.80;99.90;;;;;;5092473;28;20028;-62
2021/01/26 12:05:01;;;;;;;8.20;2.90;;;4.80;99.90;;;;;;5093340;28;20097;-62
2021/01/26 12:07:27;;;;;;;11.73;2.65;;;4.70;99.90;;;;;;5092309;28;20106;-68
2021/01/26 12:09:53;;;;;;;8.05;3.33;;;4.70;99.90;;;;;;5092994;28;20054;-62
2021/01/26 12:12:19;;;;;;;13.25;3.90;;;4.80;99.90;;;;;;5094979;28;20055;-62
2021/01/26 12:14:44;;;;;;;11.15;5.90;;;4.70;99.90;;;;;;5092384;28;20059;-63
2021/01/26 12:17:10;;;;;;;8.02;4.38;;;7.90;99.90;;;;;;5094803;28;20031;-63
2021/01/26 12:19:36;;;;;;;5.28;2.53;;;7.60;99.90;;;;;;5092834;28;20115;-64
2021/01/26 12:22:02;;;;;;;9.15;2.28;;;6.30;99.90;;;;;;5093679;28;20024;-63
2021/01/26 12:24:28;;;;;;;9.77;2.83;;;5.80;99.90;;;;;;5092409;28;20362;-68
2021/01/26 12:26:55;;;;;;;7.50;3.03;;;5.50;99.90;;;;;;5094601;28;20063;-63
2021/01/26 12:29:21;;;;;;;6.80;2.20;;;5.10;99.90;;;;;;5093964;28;20430;-63
2021/01/26 12:31:47;;;;;;;13.95;3.42;;;5.10;99.90;;;;;;5092209;28;20020;-64
2021/01/26 12:34:13;;;;;;;6.38;2.60;;;5.10;99.90;;;;;;5092523;28;20070;-63
2021/01/26 12:36:39;;;;;;;6.45;2.65;;;5.10;99.90;;;;;;5092456;28;20122;-63
2021/01/26 12:39:06;;;;;;;6.82;2.10;;;5.00;99.90;;;;;;5092629;28;20115;-63
2021/01/26 12:41:32;;;;;;;5.57;2.00;;;4.90;99.90;;;;;;5094079;28;20059;-68
2021/01/26 12:43:58;;;;;;;5.68;1.80;;;5.00;99.90;;;;;;5094259;28;20462;-63
2021/01/26 12:46:25;;;;;;;8.52;2.55;;;5.20;99.90;;;;;;5093554;28;20032;-68
2021/01/26 12:48:52;;;;;;;3.63;1.98;;;5.00;99.90;;;;;;5093561;28;20243;-63
2021/01/26 12:51:19;;;;;;;4.00;1.92;;;5.00;99.90;;;;;;5094614;28;20028;-63
2021/01/26 12:53:45;;;;;;;6.45;2.13;;;5.00;99.90;;;;;;5093822;28;20062;-62
2021/01/26 12:56:11;;;;;;;5.63;2.42;;;5.10;99.90;;;;;;5094928;28;20032;-63
2021/01/26 12:58:36;;;;;;;9.45;3.67;;;5.10;99.90;;;;;;5092217;28;20488;-63
2021/01/26 13:01:03;;;;;;;5.35;2.40;;;5.00;99.90;;;;;;5093103;28;20020;-62
2021/01/26 13:03:29;;;;;;;6.40;2.50;;;5.00;99.90;;;;;;5094163;28;20062;-70
2021/01/26 13:05:58;;;;;;;12.00;2.13;;;5.10;99.90;;;;;;5092508;28;20066;-63
2021/01/26 13:08:23;;;;;;;5.53;2.13;;;5.00;99.90;;;;;;5076352;28;20062;-65
2021/01/26 13:10:49;;;;;;;5.93;2.03;;;5.10;99.90;;;;;;5091486;28;20443;-62
2021/01/26 13:13:15;;;;;;;6.32;2.33;;;5.10;99.90;;;;;;5092373;28;20482;-62
2021/01/26 13:15:41;;;;;;;7.60;2.25;;;5.00;99.90;;;;;;5093616;28;20056;-62
2021/01/26 13:18:07;;;;;;;8.13;2.40;;;5.00;99.90;;;;;;5092940;28;20066;-62
2021/01/26 13:20:33;;;;;;;9.15;3.20;;;5.00;99.90;;;;;;5093569;28;20107;-69
2021/01/26 13:22:59;;;;;;;5.50;2.38;;;5.00;99.90;;;;;;5093071;28;20031;-61
2021/01/26 13:25:26;;;;;;;4.22;2.22;;;5.00;99.90;;;;;;5093314;28;20021;-61